Time;durP1;ratioP1;P1;durP2;ratioP2;P2;SDS_P1;SDS_P2;PMS_P1;PMS_P2;Temp;Humidity;BMP_temperature;BMP_pressure;BME280_temperature;BME280_humidity;BME280_pressure;Samples;Min_cycle;Max_cycle;Signal;HPM_P1;HPM_P2
2022/03/07 00:00:55;;;;;;;;;76.25;50.75;;;;;5.15;45.70;101974.63;4973862;28;45241;-52
2022/03/07 00:03:21;;;;;;;;;79.50;54.50;;;;;5.11;46.21;101969.59;4975020;28;46032;-48
2022/03/07 00:05:46;;;;;;;;;77.50;55.00;;;;;4.99;46.51;101956.13;4975017;28;45388;-48
2022/03/07 00:08:13;;;;;;;;;71.75;56.75;;;;;4.99;45.95;101952.63;4975420;28;45468;-49
2022/03/07 00:10:39;;;;;;;;;73.00;52.50;;;;;5.08;46.25;101967.97;4975696;28;45439;-48
2022/03/07 00:13:04;;;;;;;;;64.50;50.75;;;;;5.03;45.95;101961.25;4975436;28;46061;-52
2022/03/07 00:15:30;;;;;;;;;55.75;47.00;;;;;5.07;45.65;101968.06;4975557;28;45380;-50
2022/03/07 00:17:55;;;;;;;;;67.50;51.75;;;;;5.01;46.15;101963.94;4975760;28;45368;-50
2022/03/07 00:20:21;;;;;;;;;67.00;54.75;;;;;5.00;46.37;101968.38;4975559;28;45471;-52
2022/03/07 00:22:46;;;;;;;;;71.75;52.75;;;;;4.99;46.23;101979.00;4974756;28;46198;-51
2022/03/07 00:25:12;;;;;;;;;64.50;49.25;;;;;4.97;46.17;101972.94;4974929;28;45249;-53
2022/03/07 00:27:37;;;;;;;;;62.75;46.25;;;;;4.95;46.07;101975.66;4975183;28;45434;-50
2022/03/07 00:30:04;;;;;;;;;64.00;47.50;;;;;4.94;46.60;101973.13;4975061;28;45514;-49
2022/03/07 00:32:29;;;;;;;;;68.25;50.75;;;;;4.88;46.36;101979.53;4974500;28;47189;-51
2022/03/07 00:34:55;;;;;;;;;69.00;53.75;;;;;4.86;46.89;101981.44;4973274;28;45346;-49
2022/03/07 00:37:20;;;;;;;;;64.75;50.00;;;;;4.84;45.97;101979.78;4974694;28;45387;-53
2022/03/07 00:39:46;;;;;;;;;62.75;48.25;;;;;4.81;46.35;101985.25;4974702;28;45381;-50
2022/03/07 00:42:11;;;;;;;;;60.75;47.75;;;;;4.79;46.12;101984.44;4974241;28;46948;-51
2022/03/07 00:44:37;;;;;;;;;61.75;47.50;;;;;4.78;46.76;101980.13;4974494;28;45234;-50
2022/03/07 00:47:03;;;;;;;;;66.50;51.00;;;;;4.74;46.93;101977.63;4974370;28;45334;-49
2022/03/07 00:49:28;;;;;;;;;67.00;53.25;;;;;4.69;46.93;101970.91;4974490;28;45473;-48
2022/03/07 00:51:55;;;;;;;;;76.75;54.25;;;;;4.67;47.07;101975.38;4972900;28;46346;-51
2022/03/07 00:54:20;;;;;;;;;72.00;53.50;;;;;4.69;46.53;101981.44;4974410;28;45416;-52
2022/03/07 00:56:46;;;;;;;;;70.50;52.25;;;;;4.67;46.70;101983.28;4974250;28;45320;-52
2022/03/07 00:59:11;;;;;;;;;61.75;45.50;;;;;4.65;47.14;101985.16;4974447;28;45195;-53
2022/03/07 01:01:36;;;;;;;;;72.50;53.00;;;;;4.63;47.13;101981.75;4974066;28;46278;-52
2022/03/07 01:04:02;;;;;;;;;72.25;51.50;;;;;4.62;48.03;101982.69;4973925;28;45303;-51
2022/03/07 01:06:27;;;;;;;;;61.00;47.50;;;;;4.60;47.37;101979.28;4974277;28;45452;-49
2022/03/07 01:08:53;;;;;;;;;72.50;51.25;;;;;4.59;47.84;101978.41;4974215;28;45537;-53
2022/03/07 01:11:18;;;;;;;;;71.00;46.25;;;;;4.57;47.04;101977.63;4974193;28;46422;-53
2022/03/07 01:13:43;;;;;;;;;66.25;48.25;;;;;4.52;48.49;101974.41;4976441;28;45486;-51
2022/03/07 01:16:09;;;;;;;;;69.75;53.00;;;;;4.52;46.90;101974.41;4977389;28;45385;-50
2022/03/07 01:18:34;;;;;;;;;66.00;49.25;;;;;4.48;46.68;101976.31;4977011;28;45438;-52
2022/03/07 01:21:00;;;;;;;;;58.25;47.25;;;;;4.44;47.16;101979.19;4976783;28;46925;-49
2022/03/07 01:23:25;;;;;;;;;60.75;43.00;;;;;4.43;46.96;101983.63;4976894;28;45420;-50
2022/03/07 01:25:50;;;;;;;;;65.50;53.75;;;;;4.41;47.28;101969.66;4978109;28;45351;-51
2022/03/07 01:28:16;;;;;;;;;52.25;44.25;;;;;4.39;47.80;101976.78;4977155;28;45293;-47
2022/03/07 01:30:41;;;;;;;;;61.00;45.25;;;;;4.37;48.33;101959.34;4976660;28;46078;-50
2022/03/07 01:33:07;;;;;;;;;52.75;46.00;;;;;4.36;48.67;101971.66;4976560;28;45327;-50
2022/03/07 01:35:32;;;;;;;;;65.75;47.25;;;;;4.33;48.80;101961.28;4977111;28;45662;-53
2022/03/07 01:37:57;;;;;;;;;55.75;43.50;;;;;4.31;47.72;101964.94;4977060;28;45247;-51
2022/03/07 01:40:23;;;;;;;;;64.00;49.00;;;;;4.26;47.50;101967.81;4976856;28;46312;-50
2022/03/07 01:42:48;;;;;;;;;58.50;46.25;;;;;4.21;48.13;101962.75;4976316;28;45292;-45
2022/03/07 01:45:16;;;;;;;;;69.75;49.50;;;;;4.22;48.58;101969.72;4976692;28;45517;-45
2022/03/07 01:47:42;;;;;;;;;59.00;46.75;;;;;4.20;48.51;101962.81;4976888;28;45333;-50
2022/03/07 01:50:10;;;;;;;;;54.75;44.25;;;;;4.20;48.23;101950.50;4976344;28;47002;-52
2022/03/07 01:52:38;;;;;;;;;52.00;42.25;;;;;4.19;47.81;101963.75;4976353;28;45427;-49
2022/03/07 01:55:06;;;;;;;;;65.75;47.75;;;;;4.18;48.48;101970.81;4976782;28;45440;-50
2022/03/07 01:57:38;;;;;;;;;53.25;44.25;;;;;4.11;48.57;101952.75;4976705;28;45276;-53
2022/03/07 02:00:08;;;;;;;;;60.75;43.75;;;;;4.14;48.38;101956.09;4976360;28;47115;-48
2022/03/07 02:02:34;;;;;;;;;68.00;45.00;;;;;4.03;48.83;101937.31;4976322;28;45504;-44
2022/03/07 02:04:59;;;;;;;;;58.25;45.75;;;;;4.11;48.77;101950.09;4976467;28;45424;-49
2022/03/07 02:07:25;;;;;;;;;61.25;44.25;;;;;4.05;48.61;101940.75;4976480;28;45470;-51
2022/03/07 02:09:51;;;;;;;;;57.25;43.25;;;;;4.08;48.29;101948.47;4976349;28;46030;-47
2022/03/07 02:12:16;;;;;;;;;67.25;45.00;;;;;4.04;49.40;101941.66;4976290;28;45319;-53
2022/03/07 02:14:41;;;;;;;;;54.75;40.75;;;;;4.05;49.07;101943.38;4976536;28;45404;-53
2022/03/07 02:17:07;;;;;;;;;69.25;48.75;;;;;3.99;49.02;101936.59;4976306;28;45434;-52
2022/03/07 02:19:34;;;;;;;;;55.00;42.50;;;;;3.97;49.15;101942.91;4976188;28;46515;-50
2022/03/07 02:22:01;;;;;;;;;48.75;37.25;;;;;3.94;49.30;101937.78;4977325;28;45336;-47
2022/03/07 02:24:26;;;;;;;;;47.75;38.00;;;;;3.94;48.66;101935.13;4975264;28;45391;-53
2022/03/07 02:27:04;;;;;;;;;55.75;43.25;;;;;3.88;49.07;101932.81;4976417;28;45429;-46
2022/03/07 02:29:31;;;;;;;;;51.50;45.25;;;;;3.86;49.24;101930.25;4975990;28;46026;-46
2022/03/07 02:31:56;;;;;;;;;57.00;49.75;;;;;3.86;49.13;101922.34;4975952;28;45523;-50
2022/03/07 02:34:22;;;;;;;;;52.75;44.00;;;;;3.83;48.98;101924.28;4976283;28;45351;-45
2022/03/07 02:36:47;;;;;;;;;53.50;46.75;;;;;3.82;49.91;101926.06;4976192;28;45284;-53
2022/03/07 02:39:13;;;;;;;;;55.00;44.75;;;;;3.81;49.40;101919.09;4975931;28;45972;-53
2022/03/07 02:41:39;;;;;;;;;53.75;44.50;;;;;3.75;49.32;101907.09;4975929;28;45248;-51
2022/03/07 02:44:05;;;;;;;;;62.50;43.00;;;;;3.81;49.97;101923.50;4975877;28;45285;-49
2022/03/07 02:46:30;;;;;;;;;52.50;38.50;;;;;3.80;49.27;101916.53;4976023;28;45450;-48
2022/03/07 02:48:56;;;;;;;;;46.50;38.50;;;;;3.80;49.01;101912.13;4974425;28;45420;-44
2022/03/07 02:51:21;;;;;;;;;59.75;42.75;;;;;3.74;49.27;101909.78;4974629;28;45387;-46
2022/03/07 02:53:47;;;;;;;;;52.75;39.50;;;;;3.77;49.76;101906.16;4975766;28;45214;-53
2022/03/07 02:56:13;;;;;;;;;67.25;45.00;;;;;3.76;49.57;101907.94;4976302;28;45347;-52
2022/03/07 02:58:38;;;;;;;;;65.00;47.00;;;;;3.75;50.02;101903.63;4975655;28;46296;-53
2022/03/07 03:01:04;;;;;;;;;52.75;42.00;;;;;3.74;49.15;101910.63;4975737;28;45450;-49
2022/03/07 03:03:29;;;;;;;;;48.75;33.75;;;;;3.74;49.56;101907.16;4975849;28;45420;-51
2022/03/07 03:05:55;;;;;;;;;53.25;42.25;;;;;3.71;48.60;101905.53;4975591;28;45557;-50
2022/03/07 03:08:22;;;;;;;;;55.25;45.00;;;;;3.68;49.39;101910.09;4975511;28;46951;-47
2022/03/07 03:10:51;;;;;;;;;42.50;37.00;;;;;3.55;48.81;101886.16;4975589;28;45364;-52
2022/03/07 03:13:18;;;;;;;;;53.50;44.00;;;;;3.65;48.99;101903.19;4975683;28;45273;-45
2022/03/07 03:15:44;;;;;;;;;60.50;42.25;;;;;3.60;50.16;101894.66;4975765;28;45434;-53
2022/03/07 03:18:10;;;;;;;;;52.50;43.75;;;;;3.60;49.78;101902.56;4975507;28;46997;-47
2022/03/07 03:20:35;;;;;;;;;52.75;42.25;;;;;3.54;50.27;101897.59;4975253;28;45428;-52
2022/03/07 03:23:01;;;;;;;;;48.75;40.25;;;;;3.55;50.41;101890.56;4975538;28;45385;-47
2022/03/07 03:25:26;;;;;;;;;50.25;42.75;;;;;3.55;50.17;101901.94;4974528;28;45569;-47
2022/03/07 03:27:52;;;;;;;;;52.50;38.75;;;;;3.52;49.79;101893.31;4975305;28;45592;-53
2022/03/07 03:30:17;;;;;;;;;66.75;42.50;;;;;3.50;50.11;101893.41;4975700;28;45374;-50
2022/03/07 03:32:43;;;;;;;;;66.75;45.50;;;;;3.49;49.77;101884.63;4975398;28;45588;-47
2022/03/07 03:35:09;;;;;;;;;58.00;40.50;;;;;3.47;49.79;101883.03;4975315;28;45328;-54
2022/03/07 03:37:35;;;;;;;;;54.00;41.25;;;;;3.34;50.70;101874.00;4975348;28;46155;-46
2022/03/07 03:40:01;;;;;;;;;52.00;38.50;;;;;3.44;49.72;101891.06;4975547;28;45450;-47
2022/03/07 03:42:27;;;;;;;;;47.00;39.75;;;;;3.41;49.88;101893.81;4975488;28;45378;-46
2022/03/07 03:44:52;;;;;;;;;51.75;43.50;;;;;3.39;50.55;101895.69;4975446;28;45422;-53
2022/03/07 03:47:17;;;;;;;;;49.75;42.00;;;;;3.37;49.79;101900.16;4974967;28;46245;-49
2022/03/07 03:49:43;;;;;;;;;52.00;34.50;;;;;3.38;50.15;101904.50;4975115;28;45470;-45
2022/03/07 03:52:09;;;;;;;;;52.50;41.75;;;;;3.36;50.30;101898.44;4975321;28;45222;-52
2022/03/07 03:54:34;;;;;;;;;38.75;35.00;;;;;3.34;49.84;101910.84;4975233;28;45404;-53
2022/03/07 03:57:00;;;;;;;;;51.50;38.50;;;;;3.29;50.33;101904.91;4974786;28;45815;-54
2022/03/07 03:59:25;;;;;;;;;49.50;43.00;;;;;3.28;50.48;101901.44;4975090;28;45354;-52
2022/03/07 04:01:51;;;;;;;;;45.75;39.00;;;;;3.29;50.28;101902.28;4974606;28;45385;-49
2022/03/07 04:04:16;;;;;;;;;46.75;37.50;;;;;3.27;50.37;101899.72;4975193;28;45717;-46
2022/03/07 04:06:42;;;;;;;;;61.25;39.25;;;;;3.25;49.78;101898.97;4974507;28;47031;-53
2022/03/07 04:09:17;;;;;;;;;38.25;35.75;;;;;3.24;50.47;101905.13;4974771;28;45381;-48
2022/03/07 04:11:42;;;;;;;;;46.50;36.50;;;;;3.22;50.58;101902.56;4975088;28;45469;-46
2022/03/07 04:14:08;;;;;;;;;54.50;36.75;;;;;3.20;50.11;101909.69;4975127;28;45334;-52
2022/03/07 04:16:35;;;;;;;;;52.25;43.50;;;;;3.16;50.84;101908.13;4974800;28;47485;-47
2022/03/07 04:19:01;;;;;;;;;48.25;37.25;;;;;3.16;50.53;101904.63;4974966;28;45378;-46
2022/03/07 04:21:27;;;;;;;;;52.00;44.25;;;;;3.15;50.76;101913.44;4974872;28;45488;-52
2022/03/07 04:23:53;;;;;;;;;46.50;36.00;;;;;3.13;50.60;101912.69;4975084;28;45429;-50
2022/03/07 04:26:19;;;;;;;;;51.00;39.50;;;;;3.11;50.84;101909.25;4974622;28;47025;-47
2022/03/07 04:28:44;;;;;;;;;51.25;36.75;;;;;3.09;50.20;101916.38;4974828;28;45338;-48
2022/03/07 04:31:09;;;;;;;;;56.00;42.50;;;;;3.06;50.82;101905.97;4974922;28;45387;-45
2022/03/07 04:33:35;;;;;;;;;42.25;34.50;;;;;3.05;50.47;101907.75;4974867;28;45407;-52
2022/03/07 04:36:00;;;;;;;;;45.50;34.50;;;;;3.04;50.67;101918.34;4974449;28;45392;-48
2022/03/07 04:38:26;;;;;;;;;49.75;37.25;;;;;3.01;50.94;101911.44;4974705;28;45328;-50
2022/03/07 04:40:53;;;;;;;;;46.50;38.00;;;;;3.00;50.47;101913.22;4974741;28;45445;-47
2022/03/07 04:43:18;;;;;;;;;44.25;37.50;;;;;3.00;50.83;101907.97;4974634;28;45360;-51
2022/03/07 04:45:44;;;;;;;;;32.50;26.25;;;;;2.99;51.31;101910.66;4974371;28;46523;-49
2022/03/07 04:48:09;;;;;;;;;46.50;38.25;;;;;2.99;51.52;101922.03;4973510;28;45315;-50
2022/03/07 04:50:34;;;;;;;;;50.00;43.25;;;;;2.95;51.32;101916.97;4974664;28;45522;-52
2022/03/07 04:53:00;;;;;;;;;49.50;38.25;;;;;2.92;51.36;101920.59;4975427;28;45405;-52
2022/03/07 04:55:25;;;;;;;;;38.50;33.75;;;;;2.91;50.95;101923.31;4974924;28;46933;-52
2022/03/07 04:57:51;;;;;;;;;53.50;38.25;;;;;2.88;50.56;101916.41;4975452;28;45242;-55
2022/03/07 05:00:16;;;;;;;;;48.00;39.75;;;;;2.84;50.90;101916.63;4975327;28;45490;-50
2022/03/07 05:02:43;;;;;;;;;49.75;43.75;;;;;2.86;51.98;101917.38;4974511;28;45318;-52
2022/03/07 05:05:08;;;;;;;;;52.75;41.25;;;;;2.83;51.58;101921.03;4973761;28;46973;-49
2022/03/07 05:07:34;;;;;;;;;44.00;37.50;;;;;2.82;51.23;101923.69;4974100;28;45402;-52
2022/03/07 05:10:00;;;;;;;;;40.50;34.75;;;;;2.80;51.07;101930.81;4974063;28;45479;-53
2022/03/07 05:12:25;;;;;;;;;49.00;39.00;;;;;2.77;51.52;101920.44;4974477;28;45433;-53
2022/03/07 05:14:50;;;;;;;;;39.00;34.00;;;;;2.75;51.47;101928.38;4973760;28;46359;-48
2022/03/07 05:17:16;;;;;;;;;58.50;42.25;;;;;2.71;51.70;101929.44;4973766;28;45371;-53
2022/03/07 05:19:41;;;;;;;;;42.00;34.25;;;;;2.71;51.86;101927.66;4972717;28;45365;-52
2022/03/07 05:22:08;;;;;;;;;46.50;38.25;;;;;2.69;52.32;101918.97;4973862;28;45490;-49
2022/03/07 05:24:34;;;;;;;;;42.50;28.00;;;;;2.64;52.03;101928.84;4973763;28;46373;-51
2022/03/07 05:27:00;;;;;;;;;33.50;29.75;;;;;2.57;51.96;101916.03;4973846;28;45279;-51
2022/03/07 05:29:26;;;;;;;;;50.75;39.25;;;;;2.58;51.88;101925.66;4973978;28;45461;-51
2022/03/07 05:31:51;;;;;;;;;42.75;35.50;;;;;2.55;51.78;101917.88;4974269;28;45216;-53
2022/03/07 05:34:16;;;;;;;;;48.50;34.75;;;;;2.53;51.96;101919.72;4973822;28;46180;-53
2022/03/07 05:36:42;;;;;;;;;45.50;31.25;;;;;2.51;52.14;101922.41;4973573;28;45367;-51
2022/03/07 05:39:07;;;;;;;;;53.75;42.25;;;;;2.51;52.37;101925.03;4973877;28;45395;-53
2022/03/07 05:41:33;;;;;;;;;48.25;37.00;;;;;2.50;52.56;101929.44;4973932;28;45411;-52
2022/03/07 05:43:58;;;;;;;;;47.50;38.00;;;;;2.46;52.13;101922.63;4973447;28;46033;-52
2022/03/07 05:46:23;;;;;;;;;54.50;36.00;;;;;2.48;51.95;101923.38;4973670;28;45328;-52
2022/03/07 05:48:49;;;;;;;;;36.75;33.75;;;;;2.46;51.86;101920.00;4973591;28;45476;-52
2022/03/07 05:51:21;;;;;;;;;46.00;33.50;;;;;2.42;52.36;101921.03;4973634;28;45318;-52
2022/03/07 05:53:46;;;;;;;;;57.50;41.75;;;;;2.40;52.55;101922.91;4973309;28;45540;-49
2022/03/07 05:56:11;;;;;;;;;43.00;36.75;;;;;2.39;52.81;101933.44;4973399;28;45225;-50
2022/03/07 05:58:37;;;;;;;;;50.25;40.25;;;;;2.36;52.49;101930.94;4974692;28;45478;-50
2022/03/07 06:01:02;;;;;;;;;46.50;37.50;;;;;2.37;52.54;101930.91;4976614;28;45313;-51
2022/03/07 06:03:27;;;;;;;;;49.75;39.50;;;;;2.37;52.84;101937.91;4976361;28;45244;-52
2022/03/07 06:05:53;;;;;;;;;51.75;35.75;;;;;2.33;53.04;101936.34;4975969;28;45334;-51
2022/03/07 06:08:18;;;;;;;;;49.25;43.25;;;;;2.34;52.65;101940.66;4976585;28;45387;-53
2022/03/07 06:10:43;;;;;;;;;46.25;30.75;;;;;2.32;52.22;101937.22;4975417;28;45662;-53
2022/03/07 06:13:09;;;;;;;;;42.50;31.00;;;;;2.29;52.86;101940.00;4976376;28;45954;-51
2022/03/07 06:15:34;;;;;;;;;48.75;40.25;;;;;2.28;52.67;101939.16;4976184;28;45433;-53
2022/03/07 06:18:00;;;;;;;;;45.50;34.50;;;;;2.27;52.99;101936.59;4976218;28;45366;-53
2022/03/07 06:20:25;;;;;;;;;60.00;40.25;;;;;2.24;53.08;101941.06;4976647;28;45415;-52
2022/03/07 06:22:51;;;;;;;;;56.50;41.00;;;;;2.25;53.19;101952.41;4975967;28;45341;-50
2022/03/07 06:25:17;;;;;;;;;34.25;23.00;;;;;2.25;52.36;101944.53;4975952;28;45431;-52
2022/03/07 06:27:42;;;;;;;;;39.00;33.75;;;;;2.23;52.50;101952.47;4976447;28;45369;-52
2022/03/07 06:30:08;;;;;;;;;45.75;32.25;;;;;2.23;52.52;101946.34;4976375;28;45448;-51
2022/03/07 06:32:37;;;;;;;;;51.75;41.50;;;;;2.20;53.15;101936.00;4975850;28;46115;-50
2022/03/07 06:35:04;;;;;;;;;57.50;42.75;;;;;2.21;52.91;101946.44;4975937;28;45827;-52
2022/03/07 06:37:30;;;;;;;;;51.25;41.25;;;;;2.12;53.45;101928.44;4977536;28;45295;-52
2022/03/07 06:39:55;;;;;;;;;52.50;36.00;;;;;2.22;52.73;101940.25;4976093;28;45377;-52
2022/03/07 06:42:21;;;;;;;;;51.00;45.50;;;;;2.23;53.48;101939.34;4975631;28;45457;-52
2022/03/07 06:44:46;;;;;;;;;34.00;24.75;;;;;2.26;52.49;101948.84;4975680;28;45473;-52
2022/03/07 06:47:12;;;;;;;;;58.25;35.50;;;;;2.30;52.68;101957.47;4975909;28;45393;-51
2022/03/07 06:49:39;;;;;;;;;43.25;34.75;;;;;2.30;52.67;101966.19;4976042;28;45445;-53
2022/03/07 06:52:05;;;;;;;;;57.25;34.25;;;;;2.32;52.30;101959.13;4975617;28;46991;-52
2022/03/07 06:54:30;;;;;;;;;34.75;30.00;;;;;2.32;52.16;101956.50;4975740;28;45225;-49
2022/03/07 06:56:55;;;;;;;;;43.25;34.00;;;;;2.33;52.46;101959.97;4975901;28;45385;-52
2022/03/07 06:59:21;;;;;;;;;55.00;44.00;;;;;2.33;52.62;101952.94;4976043;28;45260;-52
2022/03/07 07:01:46;;;;;;;;;45.50;36.00;;;;;2.37;52.49;101956.31;4974231;28;47218;-50
2022/03/07 07:04:12;;;;;;;;;38.75;35.00;;;;;2.36;52.26;101942.31;4975685;28;45312;-51
2022/03/07 07:06:38;;;;;;;;;52.00;45.00;;;;;2.45;52.74;101954.22;4975418;28;45417;-55
2022/03/07 07:09:04;;;;;;;;;45.25;33.75;;;;;2.50;52.18;101954.88;4975649;28;45289;-54
2022/03/07 07:11:29;;;;;;;;;53.00;40.00;;;;;2.53;52.21;101957.38;4974980;28;45398;-54
2022/03/07 07:13:54;;;;;;;;;49.00;31.50;;;;;2.58;52.56;101958.00;4975477;28;45518;-51
2022/03/07 07:16:20;;;;;;;;;38.75;36.75;;;;;2.61;52.40;101954.38;4975938;28;45394;-54
2022/03/07 07:18:46;;;;;;;;;46.25;33.50;;;;;2.66;51.62;101955.06;4975638;28;45370;-53
2022/03/07 07:21:11;;;;;;;;;49.75;37.25;;;;;2.69;52.20;101952.28;4975246;28;45952;-55
2022/03/07 07:23:37;;;;;;;;;56.50;38.75;;;;;2.74;51.96;101953.81;4975269;28;45487;-53
2022/03/07 07:26:04;;;;;;;;;34.00;27.50;;;;;2.75;51.47;101946.78;4975317;28;45420;-53
2022/03/07 07:28:29;;;;;;;;;54.25;41.25;;;;;2.79;51.76;101950.13;4975846;28;45348;-54
2022/03/07 07:30:55;;;;;;;;;41.75;31.00;;;;;2.74;51.72;101945.09;4975269;28;45307;-52
2022/03/07 07:33:20;;;;;;;;;65.75;45.00;;;;;2.83;51.64;101957.81;4975153;28;45325;-54
2022/03/07 07:35:46;;;;;;;;;47.50;43.75;;;;;2.87;51.66;101961.16;4975304;28;45307;-54
2022/03/07 07:38:11;;;;;;;;;37.50;36.25;;;;;2.90;51.52;101951.34;4975440;28;45389;-54
2022/03/07 07:40:36;;;;;;;;;50.25;39.00;;;;;2.96;51.50;101952.88;4975043;28;45594;-54
2022/03/07 07:43:02;;;;;;;;;53.50;40.00;;;;;2.99;51.27;101955.34;4974976;28;45222;-55
2022/03/07 07:45:28;;;;;;;;;62.00;45.50;;;;;3.04;51.08;101958.63;4975291;28;45224;-52
2022/03/07 07:47:53;;;;;;;;;49.75;41.75;;;;;2.99;50.71;101952.72;4975453;28;45292;-54
2022/03/07 07:50:19;;;;;;;;;43.75;39.75;;;;;3.07;50.95;101952.38;4975115;28;45435;-54
2022/03/07 07:52:45;;;;;;;;;61.50;43.75;;;;;3.08;50.58;101951.47;4974906;28;45456;-54
2022/03/07 07:55:11;;;;;;;;;51.75;41.25;;;;;3.14;50.54;101954.66;4975031;28;45551;-52
2022/03/07 07:57:36;;;;;;;;;50.00;43.75;;;;;3.20;50.24;101941.25;4975332;28;45315;-52
2022/03/07 08:00:04;;;;;;;;;47.50;36.75;;;;;3.28;50.20;101948.78;4975294;28;46076;-54
2022/03/07 08:02:29;;;;;;;;;38.25;27.25;;;;;3.35;50.47;101954.63;4975030;28;45332;-52
2022/03/07 08:04:54;;;;;;;;;46.25;38.25;;;;;3.36;49.42;101945.78;4975152;28;45283;-49
2022/03/07 08:07:20;;;;;;;;;48.50;36.75;;;;;3.39;49.79;101953.56;4975048;28;45369;-56
2022/03/07 08:09:45;;;;;;;;;50.25;41.50;;;;;3.41;49.70;101949.94;4974637;28;45661;-53
2022/03/07 08:12:11;;;;;;;;;49.50;43.00;;;;;3.47;49.51;101940.91;4975042;28;45449;-53
2022/03/07 08:14:37;;;;;;;;;52.00;39.00;;;;;3.52;48.91;101948.56;4974931;28;45410;-54
2022/03/07 08:17:04;;;;;;;;;48.75;36.25;;;;;3.47;48.92;101947.00;4975190;28;45577;-53
2022/03/07 08:19:30;;;;;;;;;61.75;39.50;;;;;3.51;48.64;101942.47;4974563;28;46529;-53
2022/03/07 08:21:55;;;;;;;;;54.25;38.75;;;;;3.53;49.06;101951.13;4973326;28;45768;-54
2022/03/07 08:24:21;;;;;;;;;46.25;32.50;;;;;3.56;49.00;101948.34;4974897;28;45805;-55
2022/03/07 08:26:46;;;;;;;;;49.50;39.00;;;;;3.33;48.37;101885.44;4974912;28;45283;-53
2022/03/07 08:29:12;;;;;;;;;40.25;27.75;;;;;3.73;48.96;101945.78;4975693;28;45461;-53
2022/03/07 08:31:37;;;;;;;;;43.50;35.25;;;;;3.87;48.00;101946.88;4976172;28;45427;-54
2022/03/07 08:34:03;;;;;;;;;49.75;42.00;;;;;3.97;47.60;101942.91;4975979;28;45246;-54
2022/03/07 08:36:30;;;;;;;;;48.50;40.25;;;;;4.20;47.60;101939.13;4975926;28;45319;-53
2022/03/07 08:38:56;;;;;;;;;44.00;30.25;;;;;4.68;47.48;101934.94;4975103;28;46340;-53
2022/03/07 08:41:21;;;;;;;;;44.50;34.50;;;;;6.37;44.52;101939.69;4974947;28;45310;-52
2022/03/07 08:43:49;;;;;;;;;64.50;42.00;;;;;8.13;42.02;101928.63;4973065;28;45560;-51
2022/03/07 08:46:14;;;;;;;;;46.25;38.00;;;;;9.66;39.00;101921.50;4974530;28;45430;-52
2022/03/07 08:48:40;;;;;;;;;56.50;34.75;;;;;10.13;38.49;101906.50;4974283;28;46258;-55
2022/03/07 08:51:05;;;;;;;;;48.50;36.75;;;;;11.14;37.56;101924.50;4974428;28;45505;-54
2022/03/07 08:53:31;;;;;;;;;48.00;37.75;;;;;12.19;35.92;101917.72;4974380;28;45303;-52
2022/03/07 08:55:56;;;;;;;;;43.50;38.75;;;;;12.62;32.06;101920.25;4974520;28;45362;-51
2022/03/07 08:58:22;;;;;;;;;48.00;37.50;;;;;12.81;31.82;101913.31;4974266;28;46114;-53
2022/03/07 09:00:47;;;;;;;;;56.25;41.25;;;;;12.59;34.78;101915.19;4974445;28;45419;-55
2022/03/07 09:03:12;;;;;;;;;39.75;33.25;;;;;12.27;33.94;101898.41;4974407;28;45274;-55
2022/03/07 09:05:38;;;;;;;;;45.75;38.50;;;;;11.99;33.37;101908.72;4974425;28;45464;-55
2022/03/07 09:08:03;;;;;;;;;44.50;34.00;;;;;11.84;35.17;101913.50;4974018;28;45427;-55
2022/03/07 09:10:29;;;;;;;;;47.75;37.25;;;;;11.80;35.37;101908.50;4973861;28;45330;-52
2022/03/07 09:12:54;;;;;;;;;49.25;35.00;;;;;11.86;35.42;101908.03;4974127;28;45354;-53
2022/03/07 09:15:20;;;;;;;;;43.25;36.75;;;;;11.84;32.20;101902.84;4974199;28;45355;-46
2022/03/07 09:17:46;;;;;;;;;52.25;38.00;;;;;12.24;32.08;101903.00;4973867;28;46072;-54
2022/03/07 09:20:13;;;;;;;;;51.00;39.25;;;;;13.19;33.17;101896.66;4974230;28;45322;-54
2022/03/07 09:22:39;;;;;;;;;48.75;37.50;;;;;14.11;30.40;101913.25;4973889;28;45368;-51
2022/03/07 09:25:06;;;;;;;;;48.25;40.00;;;;;15.10;27.59;101899.56;4973949;28;45656;-53
2022/03/07 09:27:31;;;;;;;;;45.00;34.50;;;;;16.10;27.94;101902.19;4973567;28;46075;-54
2022/03/07 09:29:57;;;;;;;;;32.00;28.75;;;;;16.52;27.38;101896.13;4973853;28;45408;-54
2022/03/07 09:32:22;;;;;;;;;46.00;39.50;;;;;16.93;26.19;101893.69;4973973;28;45327;-51
2022/03/07 09:34:48;;;;;;;;;48.25;36.00;;;;;17.39;24.75;101892.38;4976529;28;45960;-54
2022/03/07 09:37:13;;;;;;;;;41.75;32.50;;;;;17.95;27.08;101895.41;4976643;28;46988;-56
2022/03/07 09:39:39;;;;;;;;;44.00;35.50;;;;;18.10;25.13;101893.69;4976586;28;45414;-54
2022/03/07 09:42:05;;;;;;;;;43.33;35.00;;;;;18.50;25.30;101901.91;4977003;28;45439;-54
2022/03/07 09:44:30;;;;;;;;;37.33;33.00;;;;;18.52;24.75;101892.66;4975424;28;45552;-53
2022/03/07 09:46:57;;;;;;;;;37.67;34.00;;;;;18.76;24.45;101882.88;4976583;28;46002;-53
2022/03/07 09:49:23;;;;;;;;;47.00;35.00;;;;;18.95;22.60;101885.16;4976658;28;45232;-51
2022/03/07 09:51:48;;;;;;;;;38.00;31.00;;;;;19.34;22.42;101887.03;4976527;28;45295;-54
2022/03/07 09:54:14;;;;;;;;;38.00;32.67;;;;;19.60;23.29;101884.88;4976746;28;45400;-54
2022/03/07 09:56:40;;;;;;;;;42.33;36.67;;;;;19.93;21.17;101877.41;4976549;28;45367;-53
2022/03/07 09:59:07;;;;;;;;;45.00;34.33;;;;;20.14;21.67;101871.34;4976430;28;45579;-53
2022/03/07 10:01:32;;;;;;;;;42.00;35.67;;;;;20.14;20.64;101865.06;4976686;28;45335;-53
2022/03/07 10:04:06;;;;;;;;;45.33;33.00;;;;;20.18;21.56;101869.09;4976689;28;45327;-54
2022/03/07 10:06:31;;;;;;;;;43.00;33.67;;;;;20.18;21.17;101878.06;4976192;28;46366;-55
2022/03/07 10:09:01;;;;;;;;;38.33;28.67;;;;;20.16;21.14;101866.56;4976405;28;45445;-55
2022/03/07 10:11:29;;;;;;;;;41.33;35.00;;;;;20.36;20.15;101874.19;4976424;28;45454;-48
2022/03/07 10:13:58;;;;;;;;;39.00;32.67;;;;;20.59;19.53;101864.16;4976466;28;45471;-51
2022/03/07 10:16:23;;;;;;;;;36.00;32.00;;;;;21.01;19.24;101857.25;4976124;28;45397;-53
2022/03/07 10:18:54;;;;;;;;;39.33;33.00;;;;;21.18;20.51;101868.69;4976128;28;45242;-51
2022/03/07 10:21:27;;;;;;;;;39.33;33.00;;;;;21.10;20.21;101849.84;4976264;28;45431;-55
2022/03/07 10:23:54;;;;;;;;;34.33;29.00;;;;;21.27;20.53;101862.13;4976349;28;45370;-55
2022/03/07 10:26:20;;;;;;;;;34.33;31.67;;;;;21.00;19.69;101849.31;4976004;28;46097;-49
2022/03/07 10:28:55;;;;;;;;;46.33;34.33;;;;;20.38;19.98;101853.19;4976082;28;45427;-53
2022/03/07 10:31:21;;;;;;;;;36.67;31.67;;;;;19.98;21.78;101844.47;4976304;28;45358;-46
2022/03/07 10:33:48;;;;;;;;;34.00;30.33;;;;;19.14;21.30;101840.78;4976091;28;45362;-52
2022/03/07 10:36:14;;;;;;;;;36.33;32.33;;;;;18.28;22.67;101846.91;4975868;28;46126;-52
2022/03/07 10:38:42;;;;;;;;;33.00;32.00;;;;;17.84;22.44;101848.09;4977265;28;45540;-49
2022/03/07 10:41:08;;;;;;;;;43.67;31.00;;;;;17.77;21.93;101854.31;4975828;28;45442;-52
2022/03/07 10:43:33;;;;;;;;;31.67;28.00;;;;;17.45;23.76;101861.31;4975826;28;45320;-54
2022/03/07 10:46:01;;;;;;;;;31.67;29.00;;;;;16.90;23.38;101845.66;4974839;28;46184;-52
2022/03/07 10:48:38;;;;;;;;;48.67;36.00;;;;;16.64;23.17;101840.25;4975840;28;45295;-54
2022/03/07 10:51:03;;;;;;;;;31.00;29.33;;;;;16.73;23.85;101844.75;4976247;28;45456;-54
2022/03/07 10:53:40;;;;;;;;;39.67;33.33;;;;;16.89;25.01;101833.19;4976049;28;45425;-54
2022/03/07 10:56:05;;;;;;;;;45.67;36.00;;;;;17.08;22.35;101838.31;4975525;28;45523;-54
2022/03/07 10:58:30;;;;;;;;;35.00;28.67;;;;;17.29;23.71;101839.75;4975873;28;45326;-54
2022/03/07 11:00:58;;;;;;;;;38.67;32.00;;;;;17.43;23.84;101833.72;4975669;28;45377;-53
2022/03/07 11:03:30;;;;;;;;;37.33;30.33;;;;;17.60;22.65;101831.88;4975941;28;45488;-52
2022/03/07 11:05:56;;;;;;;;;32.33;28.33;;;;;18.29;23.92;101838.66;4975512;28;45970;-53
2022/03/07 11:08:23;;;;;;;;;28.00;26.00;;;;;19.64;22.22;101810.63;4975351;28;45292;-53